Flight Track Log - Related Links

Times and Time Zones

All times are in EDT time to prevent confusion due to time zone crossing. See the QXE2397 flight status page for this flight to view local times or setup timezone preferences in your user account.

Time Position Orientation Groundspeed Altitude Reporting Facility
EDT Latitude Longitude Course Direction KTS MPH feet Rate Location/Type
Thu 10:29:00 PM 47.1970 -114.6342 294° West  Level FlightAware Approximate
Thu 10:30:00 PM 47.2257 -114.7437 296° West  Level FlightAware Approximate
Thu 10:31:00 PM 47.2612 -114.8502 296° West  Level FlightAware Approximate
Thu 10:32:00 PM 47.2807 -114.9649 282° West  Level FlightAware Approximate
Thu 10:33:00 PM 47.3108 -115.0747 294° West  Level FlightAware Approximate
Thu 10:34:00 PM 47.3411 -115.1848 288° West  Level FlightAware Approximate
Thu 10:35:00 PM 47.3663 -115.2977 288° West  Level FlightAware Approximate
Thu 10:36:00 PM 47.3913 -115.4108 288° West  Level FlightAware Approximate
Thu 10:37:00 PM 47.4197 -115.5221 292° West  Level FlightAware Approximate
Thu 10:38:00 PM 47.4498 -115.6326 292° West  Level FlightAware Approximate
Thu 10:39:00 PM 47.4541 -115.7515 275° West  Level FlightAware Approximate
Thu 10:40:00 PM 47.4611 -115.8702 275° West  Level FlightAware Approximate
Thu 10:41:00 PM 47.4680 -115.9889 275° West  Level FlightAware Approximate
Thu 10:42:00 PM 47.4748 -116.1077 275° West  Level FlightAware Approximate
Thu 10:43:00 PM 47.4814 -116.2265 275° West  Level FlightAware Approximate
Thu 10:44:00 PM 47.4879 -116.3453 275° West  Level FlightAware Approximate
Thu 10:45:00 PM 47.4943 -116.4642 275° West  Level FlightAware Approximate
Thu 10:46:00 PM 47.5006 -116.5831 275° West  Level FlightAware Approximate
Thu 10:47:00 PM 47.5068 -116.7020 274° West  Level FlightAware Approximate
Thu 10:48:00 PM 47.5128 -116.8209 274° West  Level FlightAware Approximate
Thu 10:49:00 PM 47.5187 -116.9399 274° West  Level FlightAware Approximate
Thu 10:50:00 PM 47.5245 -117.0589 274° West  Level FlightAware Approximate
Thu 10:51:00 PM 47.5302 -117.1779 274° West  Level FlightAware Approximate
Thu 10:52:00 PM 47.5357 -117.2970 274° West  Level FlightAware Approximate
Thu 10:53:00 PM 47.5411 -117.4161 274° West  Level FlightAware Approximate
Thu 10:54:00 PM 47.5465 -117.5352 274° West  Level FlightAware Approximate
Thu 10:55:00 PM 47.5542 -117.6539 279° West  Level FlightAware Approximate
Thu 10:56:00 PM 47.5673 -117.7717 279° West  Level FlightAware Approximate
Thu 10:57:00 PM 47.5803 -117.8895 279° West  Level FlightAware Approximate
Thu 10:58:00 PM 47.5917 -118.0078 278° West  Level FlightAware Approximate
Thu 10:59:00 PM 47.6024 -118.1262 278° West  Level FlightAware Approximate
Thu 11:00:00 PM 47.6131 -118.2447 278° West  Level FlightAware Approximate
Thu 11:01:00 PM 47.6236 -118.3632 278° West  Level FlightAware Approximate
Thu 11:02:00 PM 47.6340 -118.4817 277° West  Level FlightAware Approximate
Thu 11:03:00 PM 47.6442 -118.6003 277° West  Level FlightAware Approximate
Thu 11:04:00 PM 47.6544 -118.7190 277° West  Level FlightAware Approximate
Thu 11:05:00 PM 47.6642 -118.8350 277° West  Level FlightAware Approximate
Thu 11:06:00 PM 47.6738 -118.9511 277° West  Level FlightAware Approximate
Thu 11:07:00 PM 47.6834 -119.0672 277° West  Level FlightAware Approximate
Thu 11:08:00 PM 47.6928 -119.1833 277° West  Level FlightAware Approximate
Thu 11:09:00 PM 47.7022 -119.2995 277° West  Level FlightAware Approximate
Thu 11:10:00 PM 47.7114 -119.4157 277° West  Level FlightAware Approximate
Thu 11:11:00 PM 47.7205 -119.5320 277° West  Level FlightAware Approximate
Thu 11:12:00 PM 47.7297 -119.6483 277° West  Level FlightAware Approximate
Thu 11:13:00 PM 47.7388 -119.7646 277° West  Level FlightAware Approximate
Thu 11:14:00 PM 47.7477 -119.8810 277° West  Level FlightAware Approximate
Thu 11:15:00 PM 47.7565 -119.9974 276° West  Level FlightAware Approximate
Thu 11:16:00 PM 47.7652 -120.1138 276° West  Level FlightAware Approximate
Thu 11:17:00 PM 47.7834 -120.2251 270° West  Level FlightAware Approximate
Thu 11:18:00 PM 47.7841 -120.3422 278° West  Level FlightAware Approximate
Thu 11:19:00 PM 47.7947 -120.4584 278° West  Level FlightAware Approximate
Thu 11:20:00 PM 47.8039 -120.5748 276° West  Level FlightAware Approximate
Thu 11:21:00 PM 47.8117 -120.6915 276° West  Level FlightAware Approximate
Thu 11:22:00 PM 47.8188 -120.8082 277° West  Level FlightAware Approximate
Thu 11:23:00 PM 47.8285 -120.9246 277° West  Level FlightAware Approximate
Thu 11:24:00 PM 47.8333 -121.0415 270° West  Level FlightAware Approximate
Thu 11:25:00 PM 47.8467 -121.1570 281° West  Level FlightAware Approximate
Thu 11:26:00 PM 47.8565 -121.2734 276° West  Level FlightAware Approximate
Thu 11:27:00 PM 47.8648 -121.3901 276° West  Level FlightAware Approximate
Thu 11:28:00 PM 47.8727 -121.5069 276° West  Level FlightAware Approximate
Thu 11:29:00 PM 47.8805 -121.6237 276° West  Level FlightAware Approximate
Thu 11:30:00 PM 47.8597 -121.7236 214° Southwest  Level FlightAware Approximate
Thu 11:31:00 PM 47.7981 -121.7977 228° Southwest  Level FlightAware Approximate
Thu 11:32:00 PM 47.7437 -121.8845 225° Southwest  Level FlightAware Approximate
Thu 11:33:00 PM 47.6823 -121.9674 222° Southwest  Level FlightAware Approximate
Thu 11:34:00 PM 47.6237 -122.0546 214° Southwest  Level Estimated
Thu 11:35:00 PM 47.5651 -122.1416 270° West  Level Estimated
Thu 11:36:00 PM 47.4927 -122.2177 228° Southwest  Level FlightAware Approximate
Thu 11:37:00 PM 47.4333 -122.3000 222° Southwest  Level FlightAware Approximate
Thu 11:38:00 PM 47.4499 -122.3118 222° Southwest  Level Estimated
Thu 11:39:00 PM 47.4499 -122.3118 211° Southwest  Level Estimated
Thu 11:40:00 PM 47.4499 -122.3118 211° Southwest  Level Estimated
Thu 11:41:00 PM 47.4499 -122.3118 211° Southwest  Level Estimated
Thu 11:42:00 PM 47.4499 -122.3118 211° Southwest  Level Estimated
Thu 11:43:00 PM 47.4499 -122.3118 211° Southwest  Level Estimated
Thu 11:44:00 PM 47.4499 -122.3118 211° Southwest  Level Estimated
Thu 11:45:00 PM 47.4499 -122.3118 211° Southwest  Level Estimated
Thu 11:46:00 PM 47.4499 -122.3118 211° Southwest  Level Estimated
Thu 11:47:00 PM 47.4499 -122.3118 211° Southwest  Level Estimated
Thu 11:48:00 PM 47.4499 -122.3118 211° Southwest  Level Estimated
Thu 11:49:00 PM 47.4499 -122.3118 211° Southwest  Level Estimated
Thu 11:50:00 PM 47.4499 -122.3118 211° Southwest  Level Estimated
Thu 11:51:00 PM 47.4499 -122.3118 211° Southwest  Level Estimated
Thu 11:52:00 PM 47.4499 -122.3118 211° Southwest  Level Estimated
Thu 11:53:00 PM 47.4499 -122.3118 211° Southwest  Level Estimated
Thu 11:54:00 PM 47.4499 -122.3118 211° Southwest  Level Estimated
Thu 11:55:00 PM 47.4499 -122.3118 211° Southwest  Level Estimated
Thu 11:56:00 PM 47.4499 -122.3118 211° Southwest  Level Estimated
Thu 11:57:00 PM 47.4499 -122.3118 211° Southwest  Level Estimated
Thu 11:58:00 PM 47.4499 -122.3118 211° Southwest  Level Estimated
Thu 11:59:00 PM 47.4499 -122.3118 211° Southwest  Level Estimated

Login

Don't have an account? Register now (free) for customized features, flight alerts, and more!